Time;durP1;ratioP1;P1;durP2;ratioP2;P2;SDS_P1;SDS_P2;PMS_P1;PMS_P2;Temp;Humidity;BMP_temperature;BMP_pressure;BME280_temperature;BME280_humidity;BME280_pressure;Samples;Min_cycle;Max_cycle;Signal;HPM_P1;HPM_P2
2022/10/08 00:01:09;;;;;;;78.82;35.08;;;17.30;66.90;;;;;;5096603;28;20020;-76
2022/10/08 00:03:37;;;;;;;69.65;30.08;;;17.20;66.80;;;;;;5112325;28;20016;-76
2022/10/08 00:06:07;;;;;;;79.50;32.65;;;17.20;66.80;;;;;;5096095;28;20035;-78
2022/10/08 00:08:36;;;;;;;86.10;35.78;;;17.20;67.00;;;;;;5095304;28;20035;-77
2022/10/08 00:11:15;;;;;;;72.90;32.75;;;17.10;66.90;;;;;;5096288;28;20020;-79
2022/10/08 00:13:42;;;;;;;74.53;33.83;;;17.10;67.00;;;;;;5094862;28;20027;-77
2022/10/08 00:16:11;;;;;;;68.55;31.70;;;17.10;67.90;;;;;;5095993;28;20039;-75
2022/10/08 00:18:38;;;;;;;69.07;31.55;;;17.10;67.20;;;;;;5095954;28;20026;-79
2022/10/08 00:21:13;;;;;;;64.00;30.10;;;17.00;67.20;;;;;;5095836;28;20046;-78
2022/10/08 00:23:39;;;;;;;63.42;30.50;;;17.10;67.30;;;;;;5095735;28;20073;-74
2022/10/08 00:26:06;;;;;;;67.38;31.27;;;17.00;67.40;;;;;;5095377;28;20024;-80
2022/10/08 00:28:35;;;;;;;68.40;31.10;;;17.00;67.40;;;;;;5097111;28;20031;-75
2022/10/08 00:31:26;;;;;;;69.43;30.77;;;17.00;67.50;;;;;;5095968;28;20024;-74
2022/10/08 00:33:55;;;;;;;63.42;31.65;;;17.00;67.60;;;;;;5087844;28;20157;-77
2022/10/08 00:36:22;;;;;;;70.65;30.75;;;17.00;67.60;;;;;;5095301;28;20081;-75
2022/10/08 00:38:48;;;;;;;67.60;30.83;;;17.00;68.40;;;;;;5095709;28;20023;-75
2022/10/08 00:41:20;;;;;;;63.65;31.15;;;16.90;67.80;;;;;;5095701;28;20020;-78
2022/10/08 00:43:52;;;;;;;77.10;32.53;;;16.90;67.80;;;;;;5095567;28;20355;-76
2022/10/08 00:46:47;;;;;;;62.45;29.92;;;16.90;68.00;;;;;;5095036;28;20040;-76
2022/10/08 00:49:17;;;;;;;50.22;26.10;;;16.80;68.00;;;;;;5095715;28;20075;-77
2022/10/08 00:51:54;;;;;;;56.58;27.45;;;16.80;68.20;;;;;;5094978;28;20099;-74
2022/10/08 00:54:21;;;;;;;57.22;29.17;;;16.80;68.40;;;;;;5095374;28;20023;-79
2022/10/08 00:56:53;;;;;;;55.63;27.23;;;16.80;68.50;;;;;;5095145;28;20106;-77
2022/10/08 00:59:19;;;;;;;68.57;31.15;;;16.70;68.60;;;;;;5095190;28;20419;-77
2022/10/08 01:01:45;;;;;;;57.22;28.13;;;16.70;68.70;;;;;;5098849;28;20048;-75
2022/10/08 01:04:15;;;;;;;61.00;29.20;;;16.70;69.50;;;;;;5098611;28;20024;-76
2022/10/08 01:07:01;;;;;;;53.53;25.27;;;16.60;68.80;;;;;;5095650;28;20028;-76
2022/10/08 01:09:36;;;;;;;54.35;27.50;;;16.60;69.10;;;;;;5094631;28;20020;-76
2022/10/08 01:12:01;;;;;;;55.47;26.63;;;16.60;69.20;;;;;;5093295;28;20422;-76
2022/10/08 01:14:48;;;;;;;63.65;27.13;;;16.60;69.30;;;;;;5094531;28;20020;-74
2022/10/08 01:17:51;;;;;;;48.13;25.83;;;16.60;69.40;;;;;;5093137;28;20031;-76
2022/10/08 01:20:42;;;;;;;54.85;25.92;;;16.50;69.30;;;;;;5094200;28;20481;-77
2022/10/08 01:23:40;;;;;;;51.63;25.02;;;16.50;69.30;;;;;;5094417;28;20016;-74
2022/10/08 01:26:07;;;;;;;56.30;28.35;;;16.60;69.40;;;;;;5094462;28;20579;-76
2022/10/08 01:28:49;;;;;;;51.50;26.27;;;16.50;69.40;;;;;;5093315;28;20047;-73
2022/10/08 01:31:21;;;;;;;56.10;27.42;;;16.50;69.40;;;;;;5094555;28;20028;-75
2022/10/08 01:33:53;;;;;;;50.15;26.77;;;16.50;69.40;;;;;;5094476;28;20028;-78
2022/10/08 01:36:20;;;;;;;53.55;24.58;;;16.50;69.40;;;;;;5094149;28;20028;-78
2022/10/08 01:38:52;;;;;;;43.97;24.65;;;16.50;69.40;;;;;;5093139;28;20496;-75
2022/10/08 01:41:19;;;;;;;42.20;24.50;;;16.50;69.40;;;;;;5094274;28;20035;-75
2022/10/08 01:43:57;;;;;;;43.95;24.45;;;16.50;69.40;;;;;;5094220;28;20370;-76
2022/10/08 01:46:26;;;;;;;43.03;24.25;;;16.50;69.50;;;;;;5093801;28;20497;-75
2022/10/08 01:48:58;;;;;;;41.05;22.08;;;16.50;69.50;;;;;;5093818;28;20028;-76
2022/10/08 01:51:32;;;;;;;44.35;24.08;;;16.50;70.30;;;;;;5093983;28;20100;-76
2022/10/08 01:54:02;;;;;;;36.08;21.27;;;16.50;69.50;;;;;;5093872;28;20024;-78
2022/10/08 01:56:32;;;;;;;36.95;21.20;;;16.50;69.50;;;;;;5093698;28;20495;-73
2022/10/08 01:59:12;;;;;;;41.58;22.42;;;16.50;69.50;;;;;;5093769;28;20441;-78
2022/10/08 02:01:49;;;;;;;40.25;23.58;;;16.50;69.40;;;;;;5093801;28;20027;-73
2022/10/08 02:04:32;;;;;;;40.70;23.30;;;16.50;69.30;;;;;;5093894;28;20024;-77
2022/10/08 02:07:01;;;;;;;42.78;23.67;;;16.50;69.30;;;;;;5093891;28;20024;-77
2022/10/08 02:09:28;;;;;;;50.00;27.55;;;16.50;69.30;;;;;;5093722;28;20047;-77
2022/10/08 02:11:54;;;;;;;60.00;30.88;;;16.50;69.30;;;;;;5093842;28;20027;-74
2022/10/08 02:14:24;;;;;;;71.28;33.22;;;16.50;69.30;;;;;;5093670;28;20103;-77
2022/10/08 02:17:02;;;;;;;66.20;32.60;;;16.50;69.40;;;;;;5093410;28;20179;-75
2022/10/08 02:19:33;;;;;;;66.05;33.05;;;16.50;69.40;;;;;;5093164;28;20103;-74
2022/10/08 02:22:02;;;;;;;59.72;29.42;;;16.50;69.40;;;;;;5093491;28;20486;-73
2022/10/08 02:24:41;;;;;;;55.10;28.40;;;16.50;69.50;;;;;;5093448;28;20024;-74
2022/10/08 02:27:10;;;;;;;58.92;30.00;;;16.40;69.50;;;;;;5092471;28;20074;-77
2022/10/08 02:29:41;;;;;;;55.60;28.55;;;16.40;69.40;;;;;;5093339;28;20028;-75
2022/10/08 02:32:52;;;;;;;50.97;26.05;;;16.40;70.30;;;;;;5093232;28;20069;-76
2022/10/08 02:35:29;;;;;;;54.22;28.45;;;16.40;69.70;;;;;;5066505;28;20036;-75
2022/10/08 02:38:01;;;;;;;56.70;28.85;;;16.40;69.70;;;;;;5093185;28;20020;-75
2022/10/08 02:40:31;;;;;;;58.38;28.25;;;16.40;69.70;;;;;;5093326;28;20450;-76
2022/10/08 02:43:04;;;;;;;55.83;29.63;;;16.40;69.80;;;;;;5091784;28;20111;-75
2022/10/08 02:45:34;;;;;;;53.03;27.05;;;16.40;69.90;;;;;;5093213;28;20071;-79
2022/10/08 02:48:13;;;;;;;55.42;27.40;;;16.40;69.90;;;;;;5091574;28;20064;-72
2022/10/08 02:50:42;;;;;;;58.63;27.75;;;16.40;69.90;;;;;;5071686;28;20048;-75
2022/10/08 02:53:13;;;;;;;54.55;27.70;;;16.40;69.90;;;;;;5072924;28;20024;-74
2022/10/08 02:55:50;;;;;;;57.70;28.17;;;16.30;69.80;;;;;;5072908;28;20474;-75
2022/10/08 02:58:17;;;;;;;63.60;29.27;;;16.30;69.90;;;;;;5072857;28;20050;-75
2022/10/08 03:00:50;;;;;;;55.40;27.23;;;16.40;70.00;;;;;;5072738;28;20066;-77
2022/10/08 03:03:25;;;;;;;55.00;27.98;;;16.30;69.90;;;;;;5080095;28;20028;-74
2022/10/08 03:05:52;;;;;;;59.97;30.00;;;16.30;70.00;;;;;;5093119;28;20338;-76
2022/10/08 03:08:20;;;;;;;61.40;28.75;;;16.30;70.00;;;;;;5093099;28;20077;-75
2022/10/08 03:10:47;;;;;;;61.53;29.50;;;16.30;70.10;;;;;;5093032;28;20016;-74
2022/10/08 03:13:14;;;;;;;59.70;28.45;;;16.30;70.30;;;;;;5092847;28;20055;-74
2022/10/08 03:15:41;;;;;;;66.28;28.92;;;16.30;70.20;;;;;;5092842;28;20020;-75
2022/10/08 03:18:09;;;;;;;57.45;27.92;;;16.30;70.20;;;;;;5092647;28;20470;-75
2022/10/08 03:20:48;;;;;;;53.15;26.35;;;16.30;70.20;;;;;;5092750;28;20069;-77
2022/10/08 03:23:16;;;;;;;54.22;28.20;;;16.30;70.20;;;;;;5091398;28;20055;-74
2022/10/08 03:25:42;;;;;;;55.75;28.15;;;16.30;70.20;;;;;;5092053;28;20021;-76
2022/10/08 03:28:08;;;;;;;55.33;28.02;;;16.30;70.20;;;;;;5072559;28;20020;-77
2022/10/08 03:30:34;;;;;;;51.22;27.25;;;16.30;70.20;;;;;;5072568;28;20576;-79
2022/10/08 03:33:00;;;;;;;54.47;28.40;;;16.40;70.20;;;;;;5076215;28;20032;-77
2022/10/08 03:35:26;;;;;;;46.83;26.67;;;16.40;70.10;;;;;;5076169;28;20025;-74
2022/10/08 03:37:53;;;;;;;54.75;26.90;;;16.40;70.10;;;;;;5076750;28;20040;-76
2022/10/08 03:40:20;;;;;;;56.03;28.25;;;16.40;70.10;;;;;;5082650;28;20469;-78
2022/10/08 03:42:46;;;;;;;53.75;28.42;;;16.40;70.10;;;;;;5096471;28;20102;-75
2022/10/08 03:45:12;;;;;;;57.20;26.77;;;16.40;70.00;;;;;;5096167;28;20587;-77
2022/10/08 03:47:37;;;;;;;54.40;27.30;;;16.40;70.00;;;;;;5096210;28;20055;-74
2022/10/08 03:50:04;;;;;;;58.67;28.45;;;16.50;70.10;;;;;;5096306;28;20454;-77
2022/10/08 03:52:30;;;;;;;54.03;27.25;;;16.50;70.00;;;;;;5096313;28;20101;-74
2022/10/08 03:54:56;;;;;;;50.75;27.65;;;16.50;70.00;;;;;;5096333;28;20038;-76
2022/10/08 03:57:22;;;;;;;46.13;24.95;;;16.50;69.90;;;;;;5095926;28;20024;-73
2022/10/08 03:59:47;;;;;;;51.05;26.52;;;16.50;69.80;;;;;;5095932;28;20028;-76
2022/10/08 04:02:14;;;;;;;44.88;25.58;;;16.50;69.80;;;;;;5096284;28;20020;-77
2022/10/08 04:04:40;;;;;;;47.55;27.00;;;16.50;69.70;;;;;;5096177;28;20020;-78
2022/10/08 04:07:05;;;;;;;45.10;26.30;;;16.60;69.60;;;;;;5096329;28;20020;-78
2022/10/08 04:09:31;;;;;;;48.85;28.23;;;16.60;69.60;;;;;;5096015;28;20446;-76
2022/10/08 04:11:57;;;;;;;47.85;28.30;;;16.60;69.50;;;;;;5094642;28;20471;-78
2022/10/08 04:14:22;;;;;;;49.05;28.30;;;16.60;69.40;;;;;;5094198;28;20371;-74
2022/10/08 04:16:48;;;;;;;48.97;27.30;;;16.60;69.40;;;;;;5095827;28;20023;-74
2022/10/08 04:19:16;;;;;;;53.72;29.13;;;16.60;69.40;;;;;;5096162;28;20084;-75
2022/10/08 04:21:42;;;;;;;51.83;28.25;;;16.60;69.30;;;;;;5095663;28;20016;-75
2022/10/08 04:24:08;;;;;;;45.17;26.85;;;16.60;69.30;;;;;;5094564;28;20425;-75
2022/10/08 04:26:34;;;;;;;46.53;25.77;;;16.60;69.30;;;;;;5094985;28;20024;-78
2022/10/08 04:29:00;;;;;;;50.70;28.02;;;16.60;69.30;;;;;;5095398;28;20661;-74
2022/10/08 04:31:26;;;;;;;59.30;31.77;;;16.60;69.40;;;;;;5095349;28;20031;-74
2022/10/08 04:33:51;;;;;;;53.25;29.45;;;16.60;69.30;;;;;;5094285;28;20030;-77
2022/10/08 04:36:23;;;;;;;55.03;30.02;;;16.60;69.20;;;;;;5095621;28;20055;-75
2022/10/08 04:38:49;;;;;;;50.00;28.08;;;16.60;69.20;;;;;;5094521;28;20024;-78
2022/10/08 04:41:17;;;;;;;49.80;27.83;;;16.60;69.30;;;;;;5095079;28;20020;-75
2022/10/08 04:43:44;;;;;;;52.08;27.70;;;16.60;69.30;;;;;;5095237;28;20472;-79
2022/10/08 04:46:12;;;;;;;44.78;25.83;;;16.60;69.30;;;;;;5095133;28;20119;-78
2022/10/08 04:48:38;;;;;;;41.95;26.63;;;16.60;69.30;;;;;;5095376;28;20024;-77
2022/10/08 04:51:06;;;;;;;36.30;23.80;;;16.60;69.20;;;;;;5095402;28;20027;-77
2022/10/08 04:53:32;;;;;;;33.53;22.40;;;16.60;69.20;;;;;;5094135;28;20115;-74
2022/10/08 04:56:11;;;;;;;36.42;23.60;;;16.60;69.20;;;;;;5093560;28;20097;-76
2022/10/08 04:58:37;;;;;;;38.90;24.85;;;16.60;69.20;;;;;;5095410;28;20024;-73
2022/10/08 05:01:09;;;;;;;37.70;23.85;;;16.70;69.10;;;;;;5095290;28;20034;-77
2022/10/08 05:03:39;;;;;;;34.28;22.85;;;16.70;69.00;;;;;;5094981;28;20028;-76
2022/10/08 05:06:05;;;;;;;43.83;26.95;;;16.70;69.00;;;;;;5095419;28;20059;-73
2022/10/08 05:08:32;;;;;;;35.63;22.95;;;16.70;69.00;;;;;;5095023;28;20055;-76
2022/10/08 05:10:58;;;;;;;37.13;21.92;;;16.70;69.00;;;;;;5095056;28;20016;-79
2022/10/08 05:13:23;;;;;;;34.38;22.08;;;16.70;69.80;;;;;;5094965;28;20123;-74
2022/10/08 05:15:49;;;;;;;44.28;25.13;;;16.70;69.00;;;;;;5095058;28;20146;-77
2022/10/08 05:18:15;;;;;;;35.15;22.65;;;16.70;69.00;;;;;;5094956;28;20024;-76
2022/10/08 05:20:40;;;;;;;34.50;23.13;;;16.70;68.90;;;;;;5094753;28;20020;-75
2022/10/08 05:23:06;;;;;;;39.80;24.35;;;16.70;68.90;;;;;;5094728;28;20403;-76
2022/10/08 05:25:33;;;;;;;35.20;23.52;;;16.70;68.90;;;;;;5094233;28;20046;-78
2022/10/08 05:28:00;;;;;;;36.97;23.70;;;16.80;68.90;;;;;;5093309;28;20040;-77
2022/10/08 05:30:26;;;;;;;39.83;25.70;;;16.80;68.90;;;;;;5094596;28;20035;-76
2022/10/08 05:32:52;;;;;;;37.05;23.95;;;16.80;68.90;;;;;;5094632;28;20389;-74
2022/10/08 05:35:18;;;;;;;33.53;22.63;;;16.80;68.90;;;;;;5094383;28;20020;-79
2022/10/08 05:37:43;;;;;;;31.27;21.52;;;16.80;68.90;;;;;;5094155;28;20028;-77
2022/10/08 05:40:10;;;;;;;33.50;22.70;;;16.80;68.80;;;;;;5094306;28;20036;-77
2022/10/08 05:42:36;;;;;;;33.42;22.33;;;16.90;68.80;;;;;;5094405;28;20027;-77
2022/10/08 05:45:02;;;;;;;36.65;23.58;;;16.90;68.80;;;;;;5094298;28;20024;-78
2022/10/08 05:47:27;;;;;;;35.10;23.52;;;16.90;68.60;;;;;;5093976;28;20048;-73
2022/10/08 05:49:53;;;;;;;33.40;22.75;;;16.90;68.50;;;;;;5094119;28;20092;-75
2022/10/08 05:52:19;;;;;;;33.55;22.73;;;16.90;68.50;;;;;;5094072;28;20024;-76
2022/10/08 05:54:45;;;;;;;32.92;22.08;;;16.90;68.50;;;;;;5093019;28;20485;-77
2022/10/08 05:57:10;;;;;;;33.03;22.20;;;17.00;68.60;;;;;;5093751;28;20116;-73
2022/10/08 05:59:36;;;;;;;33.67;23.52;;;16.90;68.40;;;;;;5093907;28;20027;-74
2022/10/08 06:02:02;;;;;;;34.13;22.98;;;16.90;68.30;;;;;;5093948;28;20020;-78
2022/10/08 06:04:28;;;;;;;32.80;22.55;;;17.00;69.10;;;;;;5093888;28;20035;-76
2022/10/08 06:06:54;;;;;;;32.50;22.05;;;17.00;68.30;;;;;;5094000;28;20107;-75
2022/10/08 06:09:20;;;;;;;32.88;21.98;;;17.00;68.20;;;;;;5093699;28;20024;-78
2022/10/08 06:11:46;;;;;;;32.92;21.42;;;17.00;68.20;;;;;;5093904;28;20031;-75
2022/10/08 06:14:15;;;;;;;31.40;21.60;;;17.00;68.20;;;;;;5093903;28;20024;-74
2022/10/08 06:16:41;;;;;;;33.60;21.83;;;17.10;68.20;;;;;;5093551;28;20555;-77
2022/10/08 06:19:08;;;;;;;31.27;21.50;;;17.10;68.20;;;;;;5093421;28;20024;-76
2022/10/08 06:21:35;;;;;;;37.83;23.88;;;17.10;68.10;;;;;;5085040;28;20051;-74
2022/10/08 06:24:04;;;;;;;32.75;22.05;;;17.10;68.00;;;;;;5088447;28;20028;-75
2022/10/08 06:26:33;;;;;;;36.80;24.15;;;17.10;68.00;;;;;;5091667;28;20058;-76
2022/10/08 06:28:59;;;;;;;36.85;22.92;;;17.10;68.00;;;;;;5092756;28;20032;-76
2022/10/08 06:31:25;;;;;;;36.83;23.67;;;17.10;68.00;;;;;;5092469;28;20049;-73
2022/10/08 06:33:55;;;;;;;32.75;21.80;;;17.20;68.00;;;;;;5092994;28;20028;-76
2022/10/08 06:36:24;;;;;;;40.75;23.65;;;17.20;68.00;;;;;;5093454;28;20369;-75
2022/10/08 06:38:50;;;;;;;37.20;24.35;;;17.30;67.90;;;;;;5093345;28;20055;-74
2022/10/08 06:41:16;;;;;;;34.78;22.77;;;17.30;67.80;;;;;;5092775;28;20024;-78
2022/10/08 06:43:42;;;;;;;35.53;22.52;;;17.30;67.80;;;;;;5092050;28;20583;-75
2022/10/08 06:46:08;;;;;;;32.33;22.13;;;17.40;67.80;;;;;;5092666;28;20043;-75
2022/10/08 06:48:33;;;;;;;35.95;22.83;;;17.40;67.80;;;;;;5093466;28;20023;-74
2022/10/08 06:51:01;;;;;;;31.80;20.73;;;17.50;67.70;;;;;;5093329;28;20024;-73
2022/10/08 06:53:27;;;;;;;33.22;21.77;;;17.50;67.60;;;;;;5093155;28;20112;-78
2022/10/08 06:56:01;;;;;;;34.58;22.02;;;17.50;67.50;;;;;;5092999;28;20020;-77
2022/10/08 06:58:28;;;;;;;34.90;21.52;;;17.60;67.30;;;;;;5093275;28;20024;-74
2022/10/08 07:01:04;;;;;;;33.03;20.83;;;17.60;67.20;;;;;;5093020;28;20435;-73
2022/10/08 07:03:30;;;;;;;33.85;20.92;;;17.60;67.10;;;;;;5093190;28;20093;-73
2022/10/08 07:05:59;;;;;;;34.05;20.02;;;17.70;67.00;;;;;;5095562;28;20012;-77
2022/10/08 07:08:25;;;;;;;35.40;22.13;;;17.70;66.70;;;;;;5097372;28;20440;-76
2022/10/08 07:10:53;;;;;;;30.10;19.05;;;17.80;66.70;;;;;;5097326;28;20053;-72
2022/10/08 07:13:19;;;;;;;32.53;21.45;;;17.80;67.30;;;;;;5096921;28;20473;-78
2022/10/08 07:15:44;;;;;;;34.03;21.80;;;17.80;66.40;;;;;;5096005;28;20024;-75
2022/10/08 07:18:11;;;;;;;32.67;21.33;;;17.80;66.20;;;;;;5097197;28;20397;-75
2022/10/08 07:20:38;;;;;;;31.80;20.77;;;17.80;66.00;;;;;;5097248;28;20025;-78
2022/10/08 07:23:04;;;;;;;32.15;20.17;;;17.90;66.10;;;;;;5097015;28;20020;-74
2022/10/08 07:25:30;;;;;;;31.48;20.80;;;17.90;66.10;;;;;;5096726;28;20050;-73
2022/10/08 07:27:56;;;;;;;32.70;21.05;;;17.90;66.10;;;;;;5096447;28;20030;-78
2022/10/08 07:30:22;;;;;;;32.42;18.65;;;17.90;65.90;;;;;;5096942;28;20051;-77
2022/10/08 07:32:52;;;;;;;35.40;22.13;;;18.00;66.00;;;;;;5096915;28;20035;-74
2022/10/08 07:35:18;;;;;;;31.33;20.33;;;18.00;66.00;;;;;;5096668;28;20016;-78
2022/10/08 07:37:43;;;;;;;32.60;20.17;;;18.00;66.10;;;;;;5096747;28;20354;-77
2022/10/08 07:40:10;;;;;;;31.02;19.63;;;18.10;66.10;;;;;;5096170;28;20047;-73
2022/10/08 07:42:35;;;;;;;38.22;20.55;;;18.10;65.90;;;;;;5096495;28;20024;-74
2022/10/08 07:45:02;;;;;;;33.08;20.38;;;18.20;65.90;;;;;;5096887;28;20021;-77
2022/10/08 07:47:28;;;;;;;33.75;18.70;;;18.20;65.80;;;;;;5096542;28;20115;-74
2022/10/08 07:49:53;;;;;;;30.10;19.27;;;18.30;65.60;;;;;;5096663;28;20048;-76
2022/10/08 07:52:19;;;;;;;30.75;19.15;;;18.30;65.50;;;;;;5096479;28;20047;-75
2022/10/08 07:54:45;;;;;;;32.47;19.50;;;18.40;65.60;;;;;;5096505;28;20073;-77
2022/10/08 07:57:11;;;;;;;31.73;19.80;;;18.50;65.50;;;;;;5096058;28;20057;-75
2022/10/08 07:59:37;;;;;;;36.33;19.88;;;18.50;65.00;;;;;;5096902;28;20427;-77
2022/10/08 08:02:03;;;;;;;33.20;21.92;;;18.60;64.70;;;;;;5096876;28;20031;-79
2022/10/08 08:04:28;;;;;;;28.20;18.50;;;18.70;64.20;;;;;;5096485;28;20502;-79
2022/10/08 08:06:54;;;;;;;31.67;19.52;;;18.70;63.80;;;;;;5095297;28;20078;-77
2022/10/08 08:09:20;;;;;;;38.70;22.17;;;18.70;63.60;;;;;;5096325;28;20032;-77
2022/10/08 08:11:47;;;;;;;32.50;20.33;;;18.80;63.40;;;;;;5094957;28;20543;-77
2022/10/08 08:14:13;;;;;;;29.15;19.77;;;18.80;63.40;;;;;;5095825;28;20119;-79
2022/10/08 08:16:39;;;;;;;34.95;21.35;;;18.80;63.40;;;;;;5095264;28;20540;-76
2022/10/08 08:19:05;;;;;;;35.30;21.10;;;18.80;63.00;;;;;;5096487;28;20023;-74
2022/10/08 08:21:36;;;;;;;31.67;19.77;;;18.80;62.80;;;;;;5094169;28;20067;-75
2022/10/08 08:24:10;;;;;;;29.25;20.15;;;18.80;62.90;;;;;;5095964;28;20065;-77
2022/10/08 08:26:37;;;;;;;39.13;21.13;;;18.80;62.80;;;;;;5095985;28;20073;-78
2022/10/08 08:29:07;;;;;;;31.65;20.30;;;18.80;62.80;;;;;;5095811;28;20473;-75
2022/10/08 08:31:35;;;;;;;36.55;20.00;;;18.80;62.60;;;;;;5095755;28;20028;-77
2022/10/08 08:34:09;;;;;;;32.38;20.30;;;18.80;62.70;;;;;;5092659;28;20051;-74
2022/10/08 08:36:37;;;;;;;28.50;18.63;;;18.90;62.80;;;;;;5111253;28;20024;-77
2022/10/08 08:39:05;;;;;;;28.98;18.80;;;18.90;62.80;;;;;;5112443;28;20012;-76
2022/10/08 08:42:04;;;;;;;35.00;21.35;;;18.90;62.90;;;;;;5094204;28;20028;-76
2022/10/08 08:44:40;;;;;;;30.17;19.75;;;18.90;62.50;;;;;;5095947;28;20027;-74
2022/10/08 08:47:19;;;;;;;28.35;17.92;;;19.00;62.40;;;;;;5094392;28;20143;-72
2022/10/08 08:50:22;;;;;;;31.05;18.98;;;19.00;62.50;;;;;;5095543;28;20016;-76
2022/10/08 08:52:48;;;;;;;29.90;19.42;;;19.00;62.30;;;;;;5095095;28;20074;-76
2022/10/08 08:55:15;;;;;;;30.70;19.65;;;19.10;62.10;;;;;;5096165;28;20032;-78
2022/10/08 08:58:19;;;;;;;33.78;19.65;;;19.10;62.00;;;;;;5095485;28;20021;-77
2022/10/08 09:00:56;;;;;;;27.88;18.30;;;19.10;62.10;;;;;;5094938;28;20103;-75
2022/10/08 09:03:39;;;;;;;27.92;18.52;;;19.20;62.20;;;;;;5095230;28;20031;-76
2022/10/08 09:06:11;;;;;;;30.35;19.25;;;19.20;62.00;;;;;;5094943;28;20099;-75
2022/10/08 09:08:52;;;;;;;36.08;21.55;;;19.30;62.10;;;;;;5086406;28;20099;-74
2022/10/08 09:11:21;;;;;;;30.92;20.00;;;19.30;61.80;;;;;;5084575;28;20525;-77
2022/10/08 09:13:52;;;;;;;27.00;18.20;;;19.30;61.50;;;;;;5086466;28;20029;-79
2022/10/08 09:16:17;;;;;;;30.45;19.52;;;19.40;61.50;;;;;;5084385;28;20042;-75
2022/10/08 09:18:49;;;;;;;28.40;19.55;;;19.40;61.40;;;;;;5085267;28;20024;-74
2022/10/08 09:21:16;;;;;;;27.05;18.63;;;19.40;61.10;;;;;;5092716;28;20024;-74
2022/10/08 09:23:43;;;;;;;30.02;19.13;;;19.40;61.30;;;;;;5086398;28;20039;-75
2022/10/08 09:26:23;;;;;;;28.17;18.85;;;19.40;61.20;;;;;;5086913;28;20051;-76
2022/10/08 09:28:55;;;;;;;30.23;19.55;;;19.40;61.10;;;;;;5085648;28;20016;-79
2022/10/08 09:31:42;;;;;;;30.88;19.98;;;19.50;61.30;;;;;;5085617;28;20102;-76
2022/10/08 09:34:14;;;;;;;30.38;19.17;;;19.60;61.20;;;;;;5084082;28;20366;-78
2022/10/08 09:36:52;;;;;;;27.20;19.15;;;19.70;61.10;;;;;;5082471;28;20027;-78
2022/10/08 09:39:30;;;;;;;31.48;19.75;;;19.70;60.70;;;;;;5099013;28;20097;-77
2022/10/08 09:42:17;;;;;;;28.38;19.60;;;19.70;60.50;;;;;;5091223;28;20088;-73
2022/10/08 09:44:44;;;;;;;27.30;18.25;;;19.80;60.50;;;;;;5090677;28;20428;-78
2022/10/08 09:47:15;;;;;;;33.78;18.85;;;19.80;60.40;;;;;;5089318;28;20047;-79
2022/10/08 09:49:41;;;;;;;27.38;17.85;;;19.80;60.30;;;;;;5084888;28;21268;-77
2022/10/08 09:52:35;;;;;;;26.30;17.50;;;19.90;60.40;;;;;;5085230;28;20020;-76
2022/10/08 09:55:17;;;;;;;27.75;18.33;;;20.00;60.50;;;;;;5087878;28;20440;-76
2022/10/08 09:57:49;;;;;;;24.35;16.02;;;20.10;59.80;;;;;;5084286;28;20025;-80
2022/10/08 10:00:32;;;;;;;28.40;18.02;;;20.20;59.90;;;;;;5084792;28;20024;-75
2022/10/08 10:02:59;;;;;;;24.42;16.60;;;20.30;59.40;;;;;;5084315;28;20017;-78
2022/10/08 10:05:32;;;;;;;26.50;18.85;;;20.40;59.40;;;;;;5085045;28;20530;-74
2022/10/08 10:07:58;;;;;;;28.10;19.17;;;20.50;59.10;;;;;;5083761;28;20033;-73
2022/10/08 10:10:40;;;;;;;28.20;18.83;;;20.60;58.60;;;;;;5082527;28;20644;-78
2022/10/08 10:13:15;;;;;;;26.75;18.17;;;20.60;58.50;;;;;;5084665;28;20043;-76
2022/10/08 10:16:23;;;;;;;29.27;18.38;;;20.60;58.20;;;;;;5093319;28;20020;-76
2022/10/08 10:19:02;;;;;;;26.17;17.25;;;20.70;58.20;;;;;;5075144;28;20048;-76
2022/10/08 10:21:37;;;;;;;28.90;17.45;;;20.70;58.10;;;;;;5087625;28;20012;-75
2022/10/08 10:24:17;;;;;;;22.85;15.75;;;20.80;58.10;;;;;;5090728;28;20066;-78
2022/10/08 10:26:45;;;;;;;26.63;17.88;;;20.80;58.20;;;;;;5083795;28;20030;-79
2022/10/08 10:29:19;;;;;;;25.77;17.42;;;20.90;57.90;;;;;;5082316;28;20040;-77
2022/10/08 10:32:01;;;;;;;24.95;16.85;;;20.90;57.70;;;;;;5088868;28;20024;-78
2022/10/08 10:34:38;;;;;;;25.38;16.88;;;20.90;57.70;;;;;;5083037;28;20021;-78
2022/10/08 10:37:17;;;;;;;26.73;18.05;;;21.00;58.00;;;;;;5085581;28;20024;-75
2022/10/08 10:39:52;;;;;;;30.63;18.27;;;21.10;57.80;;;;;;5083112;28;20090;-76
2022/10/08 10:42:45;;;;;;;29.67;17.58;;;21.20;57.50;;;;;;5083726;28;20044;-75
2022/10/08 10:45:20;;;;;;;25.63;17.38;;;21.20;57.30;;;;;;5091789;28;20028;-73
2022/10/08 10:47:54;;;;;;;21.67;16.27;;;21.30;58.00;;;;;;5092117;28;20068;-71
2022/10/08 10:50:50;;;;;;;26.20;16.83;;;21.40;57.30;;;;;;5092825;28;20171;-77
2022/10/08 10:53:41;;;;;;;24.10;16.65;;;21.50;57.00;;;;;;5087240;28;20040;-78
2022/10/08 10:56:20;;;;;;;23.88;16.73;;;21.70;56.80;;;;;;5090816;28;20032;-74
2022/10/08 10:59:04;;;;;;;24.52;16.48;;;21.80;56.40;;;;;;5086524;28;20063;-74
2022/10/08 11:01:50;;;;;;;25.63;17.10;;;21.80;56.10;;;;;;5090276;28;20030;-78
2022/10/08 11:04:21;;;;;;;28.63;17.67;;;21.90;55.80;;;;;;5092798;28;20493;-75
2022/10/08 11:07:25;;;;;;;26.10;17.58;;;21.90;55.60;;;;;;5091182;28;20516;-78
2022/10/08 11:10:02;;;;;;;25.55;18.02;;;22.00;55.80;;;;;;5092838;28;20389;-75
2022/10/08 11:12:47;;;;;;;25.70;16.52;;;22.00;55.60;;;;;;5092933;28;20081;-75
2022/10/08 11:15:46;;;;;;;24.92;17.65;;;22.10;55.50;;;;;;5092484;28;20028;-73
2022/10/08 11:18:42;;;;;;;26.70;17.33;;;22.10;55.00;;;;;;5092618;28;20047;-76
2022/10/08 11:21:33;;;;;;;22.48;16.52;;;22.10;54.90;;;;;;5092000;28;20058;-72
2022/10/08 11:24:13;;;;;;;23.77;16.52;;;22.20;55.10;;;;;;5092584;28;20095;-72
2022/10/08 11:27:18;;;;;;;25.55;17.98;;;22.30;54.80;;;;;;5092124;28;20065;-75
2022/10/08 11:30:10;;;;;;;22.13;16.33;;;22.30;55.00;;;;;;5075836;28;20485;-73
2022/10/08 11:32:37;;;;;;;24.73;16.35;;;22.40;54.70;;;;;;5092273;28;20115;-72
2022/10/08 11:35:23;;;;;;;25.67;17.80;;;22.40;54.30;;;;;;5092703;28;20489;-75
2022/10/08 11:37:48;;;;;;;20.38;15.40;;;22.50;54.20;;;;;;5090204;28;20351;-77
2022/10/08 11:40:35;;;;;;;21.42;15.50;;;22.60;54.20;;;;;;5092052;28;20082;-75
2022/10/08 11:43:04;;;;;;;23.85;16.60;;;22.70;54.30;;;;;;5092209;28;20067;-72
2022/10/08 11:45:36;;;;;;;25.40;17.48;;;22.80;54.20;;;;;;5108370;28;20024;-75
2022/10/08 11:48:34;;;;;;;25.13;17.15;;;22.80;53.80;;;;;;5091106;28;20549;-74
2022/10/08 11:51:18;;;;;;;27.00;17.60;;;22.80;53.90;;;;;;5049553;28;20041;-76
2022/10/08 11:54:16;;;;;;;23.90;18.02;;;22.80;53.50;;;;;;5053676;28;20045;-79
2022/10/08 11:56:48;;;;;;;24.92;17.38;;;22.70;53.00;;;;;;5053665;28;20446;-75
2022/10/08 11:59:38;;;;;;;27.08;17.10;;;22.70;53.10;;;;;;5053632;28;20486;-75
2022/10/08 12:02:29;;;;;;;26.65;18.48;;;22.60;53.50;;;;;;5053908;28;20065;-78
2022/10/08 12:04:57;;;;;;;24.52;17.55;;;22.50;53.60;;;;;;5053555;28;20017;-75
2022/10/08 12:07:31;;;;;;;30.02;19.40;;;22.40;53.60;;;;;;5053645;28;20041;-78
2022/10/08 12:10:05;;;;;;;29.50;20.10;;;22.30;53.70;;;;;;5053638;28;20039;-74
2022/10/08 12:12:49;;;;;;;29.27;19.52;;;22.20;53.80;;;;;;5053436;28;20067;-75
2022/10/08 12:15:24;;;;;;;27.65;18.52;;;22.10;54.20;;;;;;5053565;28;20052;-77
2022/10/08 12:18:16;;;;;;;29.67;18.83;;;22.00;54.50;;;;;;5053397;28;20028;-74
2022/10/08 12:20:42;;;;;;;29.05;19.60;;;22.00;54.80;;;;;;5053415;28;20087;-75
2022/10/08 12:23:33;;;;;;;27.30;18.67;;;21.90;54.40;;;;;;5052957;28;20047;-72
2022/10/08 12:25:58;;;;;;;23.17;16.88;;;21.80;54.80;;;;;;5047488;28;20033;-78
2022/10/08 12:28:27;;;;;;;29.38;19.63;;;21.90;55.10;;;;;;5074209;28;20027;-76
2022/10/08 12:30:55;;;;;;;27.50;18.95;;;21.90;55.10;;;;;;5075326;28;20099;-74
2022/10/08 12:33:22;;;;;;;25.80;18.58;;;22.00;55.10;;;;;;5075261;28;20389;-77
2022/10/08 12:36:09;;;;;;;27.17;16.42;;;22.10;54.70;;;;;;5075263;28;20493;-78
2022/10/08 12:38:51;;;;;;;27.75;16.80;;;22.30;54.70;;;;;;5075363;28;20405;-75
2022/10/08 12:41:46;;;;;;;22.73;14.85;;;22.40;54.30;;;;;;5075222;28;20021;-72
2022/10/08 12:45:11;;;;;;;22.40;14.35;;;22.60;54.30;;;;;;5069674;28;20032;-75
2022/10/08 12:48:00;;;;;;;23.13;15.33;;;22.70;53.90;;;;;;5032633;28;20049;-79
2022/10/08 12:51:05;;;;;;;17.38;13.15;;;22.70;52.80;;;;;;5032956;28;20485;-75
2022/10/08 12:53:32;;;;;;;22.85;16.15;;;22.70;53.00;;;;;;5062931;28;20067;-74
2022/10/08 12:55:59;;;;;;;21.10;15.05;;;22.60;52.60;;;;;;5095113;28;20017;-73